sensor_id;sensor_type;location;lat;lon;timestamp;P1;durP1;ratioP1;P2;durP2;ratioP2
55601;SDS011;59921;51.332;12.410;2022-11-24T00:01:59;7.18;;;5.00;;
55601;SDS011;59921;51.332;12.410;2022-11-24T00:04:24;7.85;;;5.35;;
55601;SDS011;59921;51.332;12.410;2022-11-24T00:06:50;7.00;;;5.07;;
55601;SDS011;59921;51.332;12.410;2022-11-24T00:09:17;8.30;;;5.30;;
55601;SDS011;59921;51.332;12.410;2022-11-24T00:11:43;7.68;;;5.05;;
55601;SDS011;59921;51.332;12.410;2022-11-24T00:14:09;7.63;;;5.40;;
55601;SDS011;59921;51.332;12.410;2022-11-24T00:16:35;7.60;;;5.13;;
55601;SDS011;59921;51.332;12.410;2022-11-24T00:19:03;7.43;;;4.88;;
55601;SDS011;59921;51.332;12.410;2022-11-24T00:21:31;7.20;;;5.28;;
55601;SDS011;59921;51.332;12.410;2022-11-24T00:23:57;7.15;;;5.20;;
55601;SDS011;59921;51.332;12.410;2022-11-24T00:26:26;8.43;;;4.80;;
55601;SDS011;59921;51.332;12.410;2022-11-24T00:28:54;8.32;;;5.20;;
55601;SDS011;59921;51.332;12.410;2022-11-24T00:31:26;7.47;;;4.95;;
55601;SDS011;59921;51.332;12.410;2022-11-24T00:33:54;7.18;;;5.03;;
55601;SDS011;59921;51.332;12.410;2022-11-24T00:36:24;6.55;;;4.85;;
55601;SDS011;59921;51.332;12.410;2022-11-24T00:38:52;6.63;;;4.57;;
55601;SDS011;59921;51.332;12.410;2022-11-24T00:41:19;7.88;;;5.30;;
55601;SDS011;59921;51.332;12.410;2022-11-24T00:43:45;6.45;;;4.72;;
55601;SDS011;59921;51.332;12.410;2022-11-24T00:46:10;7.53;;;5.10;;
55601;SDS011;59921;51.332;12.410;2022-11-24T00:48:36;7.03;;;5.10;;
55601;SDS011;59921;51.332;12.410;2022-11-24T00:51:03;7.40;;;4.88;;
55601;SDS011;59921;51.332;12.410;2022-11-24T00:53:30;7.50;;;4.80;;
55601;SDS011;59921;51.332;12.410;2022-11-24T00:55:56;7.00;;;4.72;;
55601;SDS011;59921;51.332;12.410;2022-11-24T00:58:22;6.90;;;4.60;;
55601;SDS011;59921;51.332;12.410;2022-11-24T01:00:48;7.35;;;4.93;;
55601;SDS011;59921;51.332;12.410;2022-11-24T01:03:15;7.40;;;4.72;;
55601;SDS011;59921;51.332;12.410;2022-11-24T01:05:41;7.80;;;4.80;;
55601;SDS011;59921;51.332;12.410;2022-11-24T01:08:07;7.07;;;4.90;;
55601;SDS011;59921;51.332;12.410;2022-11-24T01:10:33;6.63;;;5.00;;
55601;SDS011;59921;51.332;12.410;2022-11-24T01:12:59;6.53;;;4.57;;
55601;SDS011;59921;51.332;12.410;2022-11-24T01:15:25;6.80;;;4.80;;
55601;SDS011;59921;51.332;12.410;2022-11-24T01:17:50;7.03;;;4.90;;
55601;SDS011;59921;51.332;12.410;2022-11-24T01:20:16;7.15;;;4.65;;
55601;SDS011;59921;51.332;12.410;2022-11-24T01:22:41;6.70;;;4.40;;
55601;SDS011;59921;51.332;12.410;2022-11-24T01:25:10;7.05;;;4.75;;
55601;SDS011;59921;51.332;12.410;2022-11-24T01:27:36;5.80;;;4.40;;
55601;SDS011;59921;51.332;12.410;2022-11-24T01:30:02;7.07;;;4.80;;
55601;SDS011;59921;51.332;12.410;2022-11-24T01:32:29;5.72;;;4.35;;
55601;SDS011;59921;51.332;12.410;2022-11-24T01:34:57;6.47;;;4.20;;
55601;SDS011;59921;51.332;12.410;2022-11-24T01:37:23;6.32;;;4.40;;
55601;SDS011;59921;51.332;12.410;2022-11-24T01:39:49;5.95;;;4.30;;
55601;SDS011;59921;51.332;12.410;2022-11-24T01:42:14;6.47;;;4.00;;
55601;SDS011;59921;51.332;12.410;2022-11-24T01:44:40;6.30;;;4.43;;
55601;SDS011;59921;51.332;12.410;2022-11-24T01:49:54;6.18;;;4.10;;
55601;SDS011;59921;51.332;12.410;2022-11-24T01:52:21;5.97;;;3.95;;
55601;SDS011;59921;51.332;12.410;2022-11-24T01:54:50;6.55;;;4.38;;
55601;SDS011;59921;51.332;12.410;2022-11-24T01:59:56;6.35;;;3.97;;
55601;SDS011;59921;51.332;12.410;2022-11-24T02:02:26;6.18;;;3.95;;
55601;SDS011;59921;51.332;12.410;2022-11-24T02:04:54;6.30;;;4.03;;
55601;SDS011;59921;51.332;12.410;2022-11-24T02:07:23;5.32;;;3.90;;
55601;SDS011;59921;51.332;12.410;2022-11-24T02:09:51;5.88;;;4.20;;
55601;SDS011;59921;51.332;12.410;2022-11-24T02:12:22;5.63;;;3.88;;
55601;SDS011;59921;51.332;12.410;2022-11-24T02:14:50;5.47;;;4.03;;
55601;SDS011;59921;51.332;12.410;2022-11-24T02:17:17;6.15;;;4.25;;
55601;SDS011;59921;51.332;12.410;2022-11-24T02:19:46;5.55;;;4.03;;
55601;SDS011;59921;51.332;12.410;2022-11-24T02:22:28;5.82;;;3.90;;
55601;SDS011;59921;51.332;12.410;2022-11-24T02:27:45;5.70;;;3.90;;
55601;SDS011;59921;51.332;12.410;2022-11-24T02:30:11;6.18;;;3.85;;
55601;SDS011;59921;51.332;12.410;2022-11-24T02:32:37;5.50;;;3.95;;
55601;SDS011;59921;51.332;12.410;2022-11-24T02:35:06;6.40;;;3.97;;
55601;SDS011;59921;51.332;12.410;2022-11-24T02:37:33;4.78;;;3.50;;
55601;SDS011;59921;51.332;12.410;2022-11-24T02:39:58;5.35;;;3.60;;
55601;SDS011;59921;51.332;12.410;2022-11-24T02:42:24;4.32;;;3.33;;
55601;SDS011;59921;51.332;12.410;2022-11-24T02:44:53;6.45;;;3.67;;
55601;SDS011;59921;51.332;12.410;2022-11-24T02:47:22;5.07;;;3.70;;
55601;SDS011;59921;51.332;12.410;2022-11-24T02:49:48;4.68;;;3.22;;
55601;SDS011;59921;51.332;12.410;2022-11-24T02:52:13;5.85;;;3.78;;
55601;SDS011;59921;51.332;12.410;2022-11-24T02:54:40;5.78;;;3.60;;
55601;SDS011;59921;51.332;12.410;2022-11-24T02:57:05;4.68;;;3.50;;
55601;SDS011;59921;51.332;12.410;2022-11-24T02:59:31;4.95;;;3.30;;
55601;SDS011;59921;51.332;12.410;2022-11-24T03:01:56;5.47;;;3.63;;
55601;SDS011;59921;51.332;12.410;2022-11-24T03:04:22;4.90;;;3.50;;
55601;SDS011;59921;51.332;12.410;2022-11-24T03:06:47;5.47;;;3.45;;
55601;SDS011;59921;51.332;12.410;2022-11-24T03:09:13;5.22;;;3.30;;
55601;SDS011;59921;51.332;12.410;2022-11-24T03:11:39;5.63;;;3.53;;
55601;SDS011;59921;51.332;12.410;2022-11-24T03:14:05;5.07;;;3.38;;
55601;SDS011;59921;51.332;12.410;2022-11-24T03:16:30;4.28;;;2.95;;
55601;SDS011;59921;51.332;12.410;2022-11-24T03:18:56;4.68;;;3.40;;
55601;SDS011;59921;51.332;12.410;2022-11-24T03:21:22;5.07;;;3.20;;
55601;SDS011;59921;51.332;12.410;2022-11-24T03:23:48;4.72;;;3.35;;
55601;SDS011;59921;51.332;12.410;2022-11-24T03:26:15;4.15;;;2.70;;
55601;SDS011;59921;51.332;12.410;2022-11-24T03:28:42;6.20;;;3.33;;
55601;SDS011;59921;51.332;12.410;2022-11-24T03:31:08;5.22;;;3.33;;
55601;SDS011;59921;51.332;12.410;2022-11-24T03:33:34;4.43;;;3.03;;
55601;SDS011;59921;51.332;12.410;2022-11-24T03:36:01;4.65;;;3.20;;
55601;SDS011;59921;51.332;12.410;2022-11-24T03:38:27;5.70;;;3.50;;
55601;SDS011;59921;51.332;12.410;2022-11-24T03:40:56;5.82;;;3.30;;
55601;SDS011;59921;51.332;12.410;2022-11-24T03:43:22;4.82;;;3.30;;
55601;SDS011;59921;51.332;12.410;2022-11-24T03:45:47;4.38;;;3.15;;
55601;SDS011;59921;51.332;12.410;2022-11-24T03:48:17;3.92;;;3.05;;
55601;SDS011;59921;51.332;12.410;2022-11-24T03:50:54;4.15;;;2.85;;
55601;SDS011;59921;51.332;12.410;2022-11-24T03:53:24;4.72;;;2.90;;
55601;SDS011;59921;51.332;12.410;2022-11-24T03:55:51;5.50;;;3.40;;
55601;SDS011;59921;51.332;12.410;2022-11-24T03:58:17;4.70;;;3.03;;
55601;SDS011;59921;51.332;12.410;2022-11-24T04:00:44;5.13;;;3.00;;
55601;SDS011;59921;51.332;12.410;2022-11-24T04:03:10;4.53;;;2.90;;
55601;SDS011;59921;51.332;12.410;2022-11-24T04:05:36;4.30;;;3.20;;
55601;SDS011;59921;51.332;12.410;2022-11-24T04:08:02;3.88;;;2.97;;
55601;SDS011;59921;51.332;12.410;2022-11-24T04:10:30;4.53;;;3.00;;
55601;SDS011;59921;51.332;12.410;2022-11-24T04:12:57;4.57;;;3.15;;
55601;SDS011;59921;51.332;12.410;2022-11-24T04:15:23;4.07;;;3.03;;
55601;SDS011;59921;51.332;12.410;2022-11-24T04:17:48;4.50;;;3.05;;
55601;SDS011;59921;51.332;12.410;2022-11-24T04:20:15;5.25;;;2.97;;
55601;SDS011;59921;51.332;12.410;2022-11-24T04:22:41;3.30;;;2.67;;
55601;SDS011;59921;51.332;12.410;2022-11-24T04:25:07;5.40;;;3.03;;
55601;SDS011;59921;51.332;12.410;2022-11-24T04:27:35;4.25;;;2.83;;
55601;SDS011;59921;51.332;12.410;2022-11-24T04:30:02;4.00;;;2.78;;
55601;SDS011;59921;51.332;12.410;2022-11-24T04:32:28;4.32;;;2.90;;
55601;SDS011;59921;51.332;12.410;2022-11-24T04:34:54;3.63;;;2.65;;
55601;SDS011;59921;51.332;12.410;2022-11-24T04:37:19;4.40;;;3.17;;
55601;SDS011;59921;51.332;12.410;2022-11-24T04:39:45;4.28;;;2.78;;
55601;SDS011;59921;51.332;12.410;2022-11-24T04:42:11;4.32;;;2.75;;
55601;SDS011;59921;51.332;12.410;2022-11-24T04:44:37;3.45;;;2.50;;
55601;SDS011;59921;51.332;12.410;2022-11-24T04:47:03;3.80;;;2.75;;
55601;SDS011;59921;51.332;12.410;2022-11-24T04:49:29;4.55;;;2.60;;
55601;SDS011;59921;51.332;12.410;2022-11-24T04:51:55;3.92;;;2.42;;
55601;SDS011;59921;51.332;12.410;2022-11-24T04:54:20;3.60;;;2.55;;
55601;SDS011;59921;51.332;12.410;2022-11-24T04:56:48;3.25;;;2.47;;
55601;SDS011;59921;51.332;12.410;2022-11-24T04:59:16;3.83;;;2.72;;
55601;SDS011;59921;51.332;12.410;2022-11-24T05:01:42;3.50;;;2.50;;
55601;SDS011;59921;51.332;12.410;2022-11-24T05:04:12;4.05;;;2.90;;
55601;SDS011;59921;51.332;12.410;2022-11-24T05:06:38;3.90;;;2.83;;
55601;SDS011;59921;51.332;12.410;2022-11-24T05:09:05;3.63;;;2.58;;
55601;SDS011;59921;51.332;12.410;2022-11-24T05:11:32;3.85;;;2.60;;
55601;SDS011;59921;51.332;12.410;2022-11-24T05:13:58;3.95;;;2.70;;
55601;SDS011;59921;51.332;12.410;2022-11-24T05:16:23;4.03;;;2.60;;
55601;SDS011;59921;51.332;12.410;2022-11-24T05:18:49;3.72;;;2.35;;
55601;SDS011;59921;51.332;12.410;2022-11-24T05:21:15;4.03;;;2.65;;
55601;SDS011;59921;51.332;12.410;2022-11-24T05:23:40;4.78;;;2.60;;
55601;SDS011;59921;51.332;12.410;2022-11-24T05:26:06;3.28;;;2.47;;
55601;SDS011;59921;51.332;12.410;2022-11-24T05:28:32;4.20;;;2.70;;
55601;SDS011;59921;51.332;12.410;2022-11-24T05:31:00;3.75;;;2.67;;
55601;SDS011;59921;51.332;12.410;2022-11-24T05:33:27;3.60;;;2.45;;
55601;SDS011;59921;51.332;12.410;2022-11-24T05:35:54;3.83;;;2.30;;
55601;SDS011;59921;51.332;12.410;2022-11-24T05:38:24;3.13;;;2.40;;
55601;SDS011;59921;51.332;12.410;2022-11-24T05:40:50;3.78;;;2.40;;
55601;SDS011;59921;51.332;12.410;2022-11-24T05:43:16;3.45;;;2.28;;
55601;SDS011;59921;51.332;12.410;2022-11-24T05:45:42;4.05;;;2.60;;
55601;SDS011;59921;51.332;12.410;2022-11-24T05:48:12;4.50;;;2.40;;
55601;SDS011;59921;51.332;12.410;2022-11-24T05:50:38;4.28;;;2.50;;
55601;SDS011;59921;51.332;12.410;2022-11-24T05:53:05;3.67;;;2.58;;
55601;SDS011;59921;51.332;12.410;2022-11-24T05:55:32;4.45;;;2.50;;
55601;SDS011;59921;51.332;12.410;2022-11-24T05:57:59;3.45;;;2.40;;
55601;SDS011;59921;51.332;12.410;2022-11-24T06:00:26;3.13;;;2.35;;
55601;SDS011;59921;51.332;12.410;2022-11-24T06:02:52;5.20;;;2.75;;
55601;SDS011;59921;51.332;12.410;2022-11-24T06:05:17;4.10;;;2.70;;
55601;SDS011;59921;51.332;12.410;2022-11-24T06:07:43;3.55;;;2.45;;
55601;SDS011;59921;51.332;12.410;2022-11-24T06:10:09;3.33;;;2.40;;
55601;SDS011;59921;51.332;12.410;2022-11-24T06:12:35;3.78;;;2.50;;
55601;SDS011;59921;51.332;12.410;2022-11-24T06:15:00;3.75;;;2.55;;
55601;SDS011;59921;51.332;12.410;2022-11-24T06:17:27;2.90;;;2.22;;
55601;SDS011;59921;51.332;12.410;2022-11-24T06:19:53;3.58;;;2.22;;
55601;SDS011;59921;51.332;12.410;2022-11-24T06:22:18;3.55;;;2.45;;
55601;SDS011;59921;51.332;12.410;2022-11-24T06:24:44;3.85;;;2.30;;
55601;SDS011;59921;51.332;12.410;2022-11-24T06:27:10;3.10;;;2.40;;
55601;SDS011;59921;51.332;12.410;2022-11-24T06:29:36;2.97;;;2.42;;
55601;SDS011;59921;51.332;12.410;2022-11-24T06:32:02;3.35;;;2.15;;
55601;SDS011;59921;51.332;12.410;2022-11-24T06:34:29;3.65;;;2.47;;
55601;SDS011;59921;51.332;12.410;2022-11-24T06:36:54;3.45;;;2.42;;
55601;SDS011;59921;51.332;12.410;2022-11-24T06:39:20;3.20;;;2.50;;
55601;SDS011;59921;51.332;12.410;2022-11-24T06:41:48;3.03;;;2.25;;
55601;SDS011;59921;51.332;12.410;2022-11-24T06:44:14;4.32;;;2.40;;
55601;SDS011;59921;51.332;12.410;2022-11-24T06:46:40;2.55;;;2.10;;
55601;SDS011;59921;51.332;12.410;2022-11-24T06:49:06;3.53;;;2.42;;
55601;SDS011;59921;51.332;12.410;2022-11-24T06:51:31;3.67;;;2.30;;
55601;SDS011;59921;51.332;12.410;2022-11-24T06:53:57;3.78;;;2.55;;
55601;SDS011;59921;51.332;12.410;2022-11-24T06:56:23;3.90;;;2.50;;
55601;SDS011;59921;51.332;12.410;2022-11-24T06:58:49;3.70;;;2.75;;
55601;SDS011;59921;51.332;12.410;2022-11-24T07:01:20;4.07;;;2.78;;
55601;SDS011;59921;51.332;12.410;2022-11-24T07:03:50;3.80;;;2.60;;
55601;SDS011;59921;51.332;12.410;2022-11-24T07:06:17;3.97;;;2.60;;
55601;SDS011;59921;51.332;12.410;2022-11-24T07:08:43;3.17;;;2.38;;
55601;SDS011;59921;51.332;12.410;2022-11-24T07:11:10;3.95;;;2.60;;
55601;SDS011;59921;51.332;12.410;2022-11-24T07:13:39;4.40;;;2.80;;
55601;SDS011;59921;51.332;12.410;2022-11-24T07:16:23;2.88;;;2.42;;
55601;SDS011;59921;51.332;12.410;2022-11-24T07:18:50;3.73;;;2.83;;
55601;SDS011;59921;51.332;12.410;2022-11-24T07:21:17;3.83;;;2.80;;
55601;SDS011;59921;51.332;12.410;2022-11-24T07:23:47;4.10;;;2.70;;
55601;SDS011;59921;51.332;12.410;2022-11-24T07:26:14;4.10;;;3.20;;
55601;SDS011;59921;51.332;12.410;2022-11-24T07:28:39;4.25;;;2.58;;
55601;SDS011;59921;51.332;12.410;2022-11-24T07:31:06;4.50;;;3.10;;
55601;SDS011;59921;51.332;12.410;2022-11-24T07:33:32;4.53;;;2.72;;
55601;SDS011;59921;51.332;12.410;2022-11-24T07:36:02;3.80;;;2.70;;
55601;SDS011;59921;51.332;12.410;2022-11-24T07:38:29;3.92;;;2.67;;
55601;SDS011;59921;51.332;12.410;2022-11-24T07:41:01;3.58;;;2.67;;
55601;SDS011;59921;51.332;12.410;2022-11-24T07:43:30;4.75;;;2.95;;
55601;SDS011;59921;51.332;12.410;2022-11-24T07:45:56;4.85;;;2.90;;
55601;SDS011;59921;51.332;12.410;2022-11-24T07:48:22;4.50;;;2.80;;
55601;SDS011;59921;51.332;12.410;2022-11-24T07:50:48;4.25;;;2.90;;
55601;SDS011;59921;51.332;12.410;2022-11-24T07:53:14;4.60;;;2.80;;
55601;SDS011;59921;51.332;12.410;2022-11-24T07:55:39;5.40;;;3.08;;
55601;SDS011;59921;51.332;12.410;2022-11-24T07:58:05;5.50;;;3.30;;
55601;SDS011;59921;51.332;12.410;2022-11-24T08:00:30;3.92;;;2.88;;
55601;SDS011;59921;51.332;12.410;2022-11-24T08:02:56;6.25;;;3.30;;
55601;SDS011;59921;51.332;12.410;2022-11-24T08:05:21;6.05;;;3.10;;
55601;SDS011;59921;51.332;12.410;2022-11-24T08:07:47;5.63;;;3.10;;
55601;SDS011;59921;51.332;12.410;2022-11-24T08:10:13;5.55;;;3.15;;
55601;SDS011;59921;51.332;12.410;2022-11-24T08:12:38;4.40;;;3.03;;
55601;SDS011;59921;51.332;12.410;2022-11-24T08:15:04;4.75;;;2.92;;
55601;SDS011;59921;51.332;12.410;2022-11-24T08:17:31;4.68;;;3.10;;
55601;SDS011;59921;51.332;12.410;2022-11-24T08:19:57;4.38;;;2.97;;
55601;SDS011;59921;51.332;12.410;2022-11-24T08:22:22;5.22;;;3.30;;
55601;SDS011;59921;51.332;12.410;2022-11-24T08:24:48;6.00;;;3.00;;
55601;SDS011;59921;51.332;12.410;2022-11-24T08:27:14;4.07;;;2.97;;
55601;SDS011;59921;51.332;12.410;2022-11-24T08:29:40;6.18;;;3.13;;
55601;SDS011;59921;51.332;12.410;2022-11-24T08:32:06;5.53;;;3.05;;
55601;SDS011;59921;51.332;12.410;2022-11-24T08:34:32;4.57;;;3.10;;
55601;SDS011;59921;51.332;12.410;2022-11-24T08:36:58;5.38;;;2.72;;
55601;SDS011;59921;51.332;12.410;2022-11-24T08:39:23;4.53;;;3.03;;
55601;SDS011;59921;51.332;12.410;2022-11-24T08:41:49;6.13;;;3.20;;
55601;SDS011;59921;51.332;12.410;2022-11-24T08:44:14;4.65;;;2.70;;
55601;SDS011;59921;51.332;12.410;2022-11-24T08:46:43;4.72;;;3.08;;
55601;SDS011;59921;51.332;12.410;2022-11-24T08:49:09;4.65;;;2.60;;
55601;SDS011;59921;51.332;12.410;2022-11-24T08:51:35;4.72;;;2.90;;
55601;SDS011;59921;51.332;12.410;2022-11-24T08:54:03;5.15;;;2.90;;
55601;SDS011;59921;51.332;12.410;2022-11-24T08:56:30;5.32;;;3.00;;
55601;SDS011;59921;51.332;12.410;2022-11-24T08:58:57;5.80;;;2.70;;
55601;SDS011;59921;51.332;12.410;2022-11-24T09:01:23;5.35;;;2.92;;
55601;SDS011;59921;51.332;12.410;2022-11-24T09:03:49;5.30;;;2.80;;
55601;SDS011;59921;51.332;12.410;2022-11-24T09:06:19;4.22;;;2.72;;
55601;SDS011;59921;51.332;12.410;2022-11-24T09:08:50;5.07;;;2.80;;
55601;SDS011;59921;51.332;12.410;2022-11-24T09:11:16;4.78;;;3.00;;
55601;SDS011;59921;51.332;12.410;2022-11-24T09:13:43;4.82;;;3.13;;
55601;SDS011;59921;51.332;12.410;2022-11-24T09:16:10;4.15;;;2.70;;
55601;SDS011;59921;51.332;12.410;2022-11-24T09:18:38;4.68;;;2.90;;
55601;SDS011;59921;51.332;12.410;2022-11-24T09:21:10;3.97;;;2.50;;
55601;SDS011;59921;51.332;12.410;2022-11-24T09:23:41;4.25;;;2.70;;
55601;SDS011;59921;51.332;12.410;2022-11-24T09:26:09;5.75;;;3.05;;
55601;SDS011;59921;51.332;12.410;2022-11-24T09:28:36;3.70;;;2.63;;
55601;SDS011;59921;51.332;12.410;2022-11-24T09:31:02;4.28;;;2.70;;
55601;SDS011;59921;51.332;12.410;2022-11-24T09:33:29;3.92;;;2.78;;
55601;SDS011;59921;51.332;12.410;2022-11-24T09:35:56;4.25;;;2.55;;
55601;SDS011;59921;51.332;12.410;2022-11-24T09:38:22;4.60;;;3.15;;
55601;SDS011;59921;51.332;12.410;2022-11-24T09:40:48;4.68;;;2.70;;
55601;SDS011;59921;51.332;12.410;2022-11-24T09:43:24;5.10;;;2.80;;
55601;SDS011;59921;51.332;12.410;2022-11-24T09:46:06;5.38;;;2.90;;
55601;SDS011;59921;51.332;12.410;2022-11-24T09:48:37;5.82;;;2.83;;
55601;SDS011;59921;51.332;12.410;2022-11-24T09:51:07;5.85;;;2.78;;
55601;SDS011;59921;51.332;12.410;2022-11-24T09:53:36;5.45;;;2.85;;
55601;SDS011;59921;51.332;12.410;2022-11-24T09:56:19;5.00;;;2.88;;
55601;SDS011;59921;51.332;12.410;2022-11-24T10:03:57;3.63;;;2.25;;
55601;SDS011;59921;51.332;12.410;2022-11-24T10:06:29;4.00;;;2.60;;
55601;SDS011;59921;51.332;12.410;2022-11-24T10:19:48;5.45;;;2.42;;
55601;SDS011;59921;51.332;12.410;2022-11-24T10:24:55;3.90;;;2.55;;
55601;SDS011;59921;51.332;12.410;2022-11-24T10:27:32;4.22;;;2.38;;
55601;SDS011;59921;51.332;12.410;2022-11-24T10:30:02;4.43;;;2.60;;
55601;SDS011;59921;51.332;12.410;2022-11-24T10:32:45;4.18;;;2.25;;
55601;SDS011;59921;51.332;12.410;2022-11-24T10:35:19;4.57;;;2.47;;
55601;SDS011;59921;51.332;12.410;2022-11-24T10:37:56;4.78;;;2.53;;
55601;SDS011;59921;51.332;12.410;2022-11-24T10:40:38;3.38;;;2.20;;
55601;SDS011;59921;51.332;12.410;2022-11-24T10:43:07;3.95;;;2.35;;
55601;SDS011;59921;51.332;12.410;2022-11-24T10:45:34;4.45;;;2.65;;
55601;SDS011;59921;51.332;12.410;2022-11-24T10:48:01;4.40;;;2.45;;
55601;SDS011;59921;51.332;12.410;2022-11-24T10:50:32;3.47;;;2.20;;
55601;SDS011;59921;51.332;12.410;2022-11-24T10:58:30;6.10;;;2.33;;
55601;SDS011;59921;51.332;12.410;2022-11-24T11:00:57;3.38;;;2.08;;
55601;SDS011;59921;51.332;12.410;2022-11-24T11:03:30;2.92;;;2.03;;
55601;SDS011;59921;51.332;12.410;2022-11-24T11:08:36;4.20;;;2.30;;
55601;SDS011;59921;51.332;12.410;2022-11-24T11:11:36;4.15;;;2.28;;
55601;SDS011;59921;51.332;12.410;2022-11-24T11:14:04;2.97;;;2.10;;
55601;SDS011;59921;51.332;12.410;2022-11-24T11:16:44;5.10;;;2.50;;
55601;SDS011;59921;51.332;12.410;2022-11-24T11:19:30;5.68;;;2.42;;
55601;SDS011;59921;51.332;12.410;2022-11-24T11:24:35;4.07;;;2.17;;
55601;SDS011;59921;51.332;12.410;2022-11-24T11:27:04;4.53;;;2.30;;
55601;SDS011;59921;51.332;12.410;2022-11-24T11:29:41;4.65;;;2.50;;
55601;SDS011;59921;51.332;12.410;2022-11-24T11:32:16;3.75;;;2.25;;
55601;SDS011;59921;51.332;12.410;2022-11-24T11:34:55;3.88;;;2.15;;
55601;SDS011;59921;51.332;12.410;2022-11-24T11:37:26;3.85;;;2.22;;
55601;SDS011;59921;51.332;12.410;2022-11-24T11:39:55;4.13;;;2.40;;
55601;SDS011;59921;51.332;12.410;2022-11-24T11:45:02;5.23;;;2.37;;
55601;SDS011;59921;51.332;12.410;2022-11-24T11:50:10;3.72;;;2.03;;
55601;SDS011;59921;51.332;12.410;2022-11-24T11:52:49;6.22;;;2.35;;
55601;SDS011;59921;51.332;12.410;2022-11-24T12:00:58;4.30;;;2.30;;
55601;SDS011;59921;51.332;12.410;2022-11-24T12:06:01;3.88;;;2.10;;
55601;SDS011;59921;51.332;12.410;2022-11-24T12:14:02;3.78;;;2.38;;
55601;SDS011;59921;51.332;12.410;2022-11-24T12:16:42;4.25;;;2.30;;
55601;SDS011;59921;51.332;12.410;2022-11-24T12:22:23;3.75;;;2.30;;
55601;SDS011;59921;51.332;12.410;2022-11-24T12:31:05;3.47;;;2.42;;
55601;SDS011;59921;51.332;12.410;2022-11-24T12:33:38;3.28;;;2.20;;
55601;SDS011;59921;51.332;12.410;2022-11-24T12:36:22;4.22;;;2.58;;
55601;SDS011;59921;51.332;12.410;2022-11-24T12:39:00;3.75;;;2.15;;
55601;SDS011;59921;51.332;12.410;2022-11-24T12:54:43;4.43;;;2.20;;
55601;SDS011;59921;51.332;12.410;2022-11-24T12:57:20;4.93;;;2.47;;
55601;SDS011;59921;51.332;12.410;2022-11-24T13:00:03;5.97;;;2.45;;
55601;SDS011;59921;51.332;12.410;2022-11-24T13:02:37;3.45;;;2.28;;
55601;SDS011;59921;51.332;12.410;2022-11-24T13:07:52;4.13;;;2.13;;
55601;SDS011;59921;51.332;12.410;2022-11-24T13:12:53;4.22;;;2.38;;
55601;SDS011;59921;51.332;12.410;2022-11-24T13:15:21;4.85;;;2.83;;
55601;SDS011;59921;51.332;12.410;2022-11-24T13:17:48;4.70;;;2.47;;
55601;SDS011;59921;51.332;12.410;2022-11-24T13:23:19;5.07;;;2.60;;
55601;SDS011;59921;51.332;12.410;2022-11-24T13:26:12;6.95;;;3.15;;
55601;SDS011;59921;51.332;12.410;2022-11-24T13:28:57;5.47;;;3.03;;
55601;SDS011;59921;51.332;12.410;2022-11-24T13:31:26;4.50;;;2.85;;
55601;SDS011;59921;51.332;12.410;2022-11-24T13:33:51;5.63;;;3.28;;
55601;SDS011;59921;51.332;12.410;2022-11-24T13:46:57;6.32;;;4.32;;
55601;SDS011;59921;51.332;12.410;2022-11-24T13:49:38;7.80;;;4.40;;
55601;SDS011;59921;51.332;12.410;2022-11-24T13:55:04;7.57;;;4.88;;
55601;SDS011;59921;51.332;12.410;2022-11-24T13:57:45;9.13;;;4.93;;
55601;SDS011;59921;51.332;12.410;2022-11-24T14:00:21;7.63;;;4.88;;
55601;SDS011;59921;51.332;12.410;2022-11-24T14:05:46;8.25;;;4.90;;
55601;SDS011;59921;51.332;12.410;2022-11-24T14:08:15;8.35;;;5.35;;
55601;SDS011;59921;51.332;12.410;2022-11-24T14:10:44;7.68;;;5.07;;
55601;SDS011;59921;51.332;12.410;2022-11-24T14:13:20;10.25;;;5.72;;
55601;SDS011;59921;51.332;12.410;2022-11-24T14:18:33;8.43;;;5.75;;
55601;SDS011;59921;51.332;12.410;2022-11-24T14:23:45;10.23;;;6.07;;
55601;SDS011;59921;51.332;12.410;2022-11-24T14:26:18;10.55;;;6.35;;
55601;SDS011;59921;51.332;12.410;2022-11-24T14:28:46;9.15;;;6.35;;
55601;SDS011;59921;51.332;12.410;2022-11-24T14:31:24;9.95;;;6.85;;
55601;SDS011;59921;51.332;12.410;2022-11-24T14:34:05;10.32;;;6.57;;
55601;SDS011;59921;51.332;12.410;2022-11-24T14:36:38;9.32;;;6.65;;
55601;SDS011;59921;51.332;12.410;2022-11-24T14:39:04;9.20;;;6.57;;
55601;SDS011;59921;51.332;12.410;2022-11-24T14:41:29;9.80;;;6.57;;
55601;SDS011;59921;51.332;12.410;2022-11-24T14:46:39;9.82;;;7.07;;
55601;SDS011;59921;51.332;12.410;2022-11-24T14:49:06;11.00;;;7.20;;
55601;SDS011;59921;51.332;12.410;2022-11-24T14:51:35;10.52;;;6.85;;
55601;SDS011;59921;51.332;12.410;2022-11-24T14:54:06;9.85;;;6.78;;
55601;SDS011;59921;51.332;12.410;2022-11-24T14:56:39;9.80;;;6.97;;
55601;SDS011;59921;51.332;12.410;2022-11-24T14:59:21;10.15;;;7.20;;
55601;SDS011;59921;51.332;12.410;2022-11-24T15:01:48;10.40;;;7.10;;
55601;SDS011;59921;51.332;12.410;2022-11-24T15:04:15;11.43;;;7.05;;
55601;SDS011;59921;51.332;12.410;2022-11-24T15:14:51;9.30;;;6.82;;
55601;SDS011;59921;51.332;12.410;2022-11-24T15:17:20;10.07;;;7.10;;
55601;SDS011;59921;51.332;12.410;2022-11-24T15:19:50;11.13;;;7.22;;
55601;SDS011;59921;51.332;12.410;2022-11-24T15:22:33;9.98;;;7.13;;
55601;SDS011;59921;51.332;12.410;2022-11-24T15:25:00;9.77;;;7.15;;
55601;SDS011;59921;51.332;12.410;2022-11-24T15:27:26;10.20;;;7.10;;
55601;SDS011;59921;51.332;12.410;2022-11-24T15:29:52;9.85;;;6.80;;
55601;SDS011;59921;51.332;12.410;2022-11-24T15:32:17;11.98;;;7.72;;
55601;SDS011;59921;51.332;12.410;2022-11-24T15:34:43;10.55;;;7.30;;
55601;SDS011;59921;51.332;12.410;2022-11-24T15:37:08;10.38;;;7.43;;
55601;SDS011;59921;51.332;12.410;2022-11-24T15:39:34;11.63;;;7.03;;
55601;SDS011;59921;51.332;12.410;2022-11-24T15:42:00;11.35;;;7.32;;
55601;SDS011;59921;51.332;12.410;2022-11-24T15:44:25;10.32;;;6.75;;
55601;SDS011;59921;51.332;12.410;2022-11-24T15:46:51;10.45;;;7.10;;
55601;SDS011;59921;51.332;12.410;2022-11-24T15:49:16;10.43;;;6.60;;
55601;SDS011;59921;51.332;12.410;2022-11-24T15:51:43;10.30;;;7.07;;
55601;SDS011;59921;51.332;12.410;2022-11-24T15:54:11;10.18;;;6.93;;
55601;SDS011;59921;51.332;12.410;2022-11-24T15:56:39;10.20;;;7.07;;
55601;SDS011;59921;51.332;12.410;2022-11-24T15:59:06;9.70;;;6.75;;
55601;SDS011;59921;51.332;12.410;2022-11-24T16:01:37;10.48;;;6.60;;
55601;SDS011;59921;51.332;12.410;2022-11-24T16:04:03;10.75;;;6.70;;
55601;SDS011;59921;51.332;12.410;2022-11-24T16:06:29;10.65;;;6.95;;
55601;SDS011;59921;51.332;12.410;2022-11-24T16:08:55;9.05;;;6.40;;
55601;SDS011;59921;51.332;12.410;2022-11-24T16:11:22;9.50;;;6.45;;
55601;SDS011;59921;51.332;12.410;2022-11-24T16:13:48;10.68;;;7.15;;
55601;SDS011;59921;51.332;12.410;2022-11-24T16:16:14;10.45;;;6.80;;
55601;SDS011;59921;51.332;12.410;2022-11-24T16:18:40;10.57;;;6.53;;
55601;SDS011;59921;51.332;12.410;2022-11-24T16:21:06;9.27;;;6.22;;
55601;SDS011;59921;51.332;12.410;2022-11-24T16:23:32;12.27;;;6.78;;
55601;SDS011;59921;51.332;12.410;2022-11-24T16:25:58;9.45;;;6.55;;
55601;SDS011;59921;51.332;12.410;2022-11-24T16:28:24;9.60;;;6.40;;
55601;SDS011;59921;51.332;12.410;2022-11-24T16:30:49;10.77;;;6.57;;
55601;SDS011;59921;51.332;12.410;2022-11-24T16:33:15;9.52;;;6.55;;
55601;SDS011;59921;51.332;12.410;2022-11-24T16:35:41;9.43;;;6.40;;
55601;SDS011;59921;51.332;12.410;2022-11-24T16:38:09;10.02;;;6.40;;
55601;SDS011;59921;51.332;12.410;2022-11-24T16:40:39;9.90;;;6.22;;